createdAt,value
2023-06-23T08:36:21.421Z,100.00
2023-06-23T08:38:53.682Z,100.00
2023-06-23T08:41:35.624Z,100.00
2023-06-23T10:24:39.768Z,100.00
2023-06-23T10:27:30.214Z,100.00
2023-06-23T10:34:01.802Z,100.00
2023-06-23T10:49:27.799Z,100.00
2023-06-23T10:56:55.987Z,100.00
2023-06-23T11:00:31.843Z,94.14
2023-06-23T11:03:10.133Z,100.00
2023-06-23T11:05:43.975Z,99.72
2023-06-23T11:08:16.132Z,95.46
2023-06-23T11:11:00.917Z,98.91
2023-06-23T11:13:48.809Z,96.66
2023-06-23T11:16:34.634Z,98.74
2023-06-23T11:19:07.207Z,97.87
2023-06-23T11:21:41.961Z,98.15
2023-06-23T11:29:48.187Z,91.32
2023-06-23T11:33:20.958Z,89.24
2023-06-23T11:46:40.137Z,74.66
2023-06-23T11:49:50.723Z,71.51
2023-06-23T11:53:27.408Z,77.60
2023-06-23T11:56:13.091Z,81.00
2023-06-23T11:58:57.572Z,79.84
2023-06-23T12:01:35.648Z,80.39
2023-06-23T12:09:35.704Z,80.54
2023-06-23T12:55:10.258Z,49.15
2023-06-23T12:58:03.978Z,53.58
2023-06-23T13:00:36.319Z,56.24
2023-06-23T13:03:42.799Z,57.42
2023-06-23T13:06:15.748Z,56.87
2023-06-23T13:08:53.964Z,55.56
2023-06-23T13:11:28.245Z,50.23
2023-06-23T13:22:07.754Z,40.48
2023-06-23T13:24:41.959Z,38.88
2023-06-23T13:31:07.823Z,34.99
2023-06-23T13:34:19.968Z,34.45
2023-06-23T13:36:52.470Z,34.05
2023-06-23T13:39:57.917Z,33.01
2023-06-23T13:42:31.278Z,33.33
2023-06-23T13:45:05.245Z,35.53
2023-06-23T13:47:40.770Z,32.76
2023-06-23T13:53:19.048Z,31.29
2023-06-23T13:55:53.793Z,29.40
2023-06-23T14:11:25.977Z,24.58
2023-06-23T14:14:01.393Z,24.92
2023-06-23T14:17:22.166Z,25.23
2023-06-23T14:23:48.026Z,29.14
2023-06-23T14:45:23.462Z,35.44
2023-06-23T14:54:37.499Z,37.41
2023-06-23T14:57:10.234Z,39.85
2023-06-23T14:59:42.391Z,39.93
2023-06-23T15:02:14.684Z,41.34
2023-06-23T15:04:47.311Z,40.34
2023-06-23T15:11:15.090Z,40.66
2023-06-23T15:13:47.328Z,42.47
2023-06-23T15:16:19.428Z,44.28
2023-06-23T15:20:13.511Z,44.30
2023-06-23T15:22:45.765Z,41.47
2023-06-23T15:25:18.049Z,44.25
2023-06-23T15:27:50.467Z,43.35
2023-06-23T15:30:22.815Z,45.39
2023-06-23T15:32:55.842Z,45.67
2023-06-23T15:35:28.356Z,46.76
2023-06-23T15:38:00.688Z,47.06
2023-06-23T15:40:33.002Z,48.06
2023-06-23T15:43:05.272Z,44.29
2023-06-23T15:45:44.260Z,45.30
2023-06-23T15:48:16.638Z,46.49
2023-06-23T15:50:49.020Z,45.31
2023-06-23T15:53:22.130Z,45.77
2023-06-23T15:56:15.691Z,41.02
2023-06-23T15:59:44.923Z,37.33
2023-06-23T16:02:18.113Z,34.91
2023-06-23T16:08:51.645Z,35.41
2023-06-23T16:11:25.397Z,37.89
2023-06-23T16:13:57.633Z,37.64
2023-06-23T16:16:31.368Z,38.66
2023-06-23T16:19:03.920Z,39.69
2023-06-23T16:21:37.442Z,40.92
2023-06-23T16:24:12.773Z,39.44
2023-06-23T16:26:46.532Z,39.10
2023-06-23T16:29:21.711Z,40.74
2023-06-23T16:33:38.027Z,43.74
2023-06-23T16:36:25.233Z,50.52
2023-06-23T16:39:11.019Z,55.41
2023-06-23T16:44:52.237Z,59.77
2023-06-23T16:47:24.614Z,59.01
2023-06-23T16:49:57.544Z,57.95
2023-06-23T16:52:29.869Z,58.16
2023-06-23T16:55:03.100Z,57.72
2023-06-23T16:57:38.584Z,58.12
2023-06-23T17:01:09.070Z,59.67
2023-06-23T17:07:36.588Z,58.88
2023-06-23T17:10:41.498Z,58.94
2023-06-23T17:13:17.196Z,58.54
2023-06-23T17:15:49.344Z,59.09
2023-06-23T17:18:25.939Z,59.22
2023-06-23T17:20:58.251Z,60.87
2023-06-23T17:23:30.474Z,61.89
2023-06-23T17:26:15.441Z,64.69
2023-06-23T17:30:10.073Z,67.90
2023-06-23T17:32:43.234Z,69.21
2023-06-23T17:35:15.829Z,71.98
2023-06-23T17:37:48.263Z,71.66
2023-06-23T17:40:26.992Z,71.92
2023-06-23T17:46:22.743Z,72.18
2023-06-23T17:48:55.675Z,71.56
2023-06-23T17:52:08.565Z,70.14
2023-06-23T17:55:03.223Z,69.44
2023-06-23T17:57:35.467Z,68.75
2023-06-23T18:03:51.915Z,68.33
2023-06-23T18:06:24.515Z,67.22
2023-06-23T18:08:57.029Z,67.73
2023-06-23T18:11:29.970Z,67.97
2023-06-23T18:14:08.090Z,68.65
2023-06-23T18:16:46.790Z,67.81
2023-06-23T18:23:23.386Z,64.33
2023-06-23T18:30:24.747Z,63.95
2023-06-23T18:33:13.356Z,64.56
2023-06-23T18:35:46.041Z,64.64
2023-06-23T18:38:40.249Z,63.91
2023-06-23T18:41:12.590Z,66.22
2023-06-23T18:43:45.032Z,65.98
2023-06-23T18:50:11.188Z,65.99
2023-06-23T18:52:43.535Z,66.42
2023-06-23T18:55:15.888Z,67.53
2023-06-23T18:57:48.289Z,67.22
2023-06-23T19:00:20.690Z,67.62
2023-06-23T19:02:56.707Z,68.79
2023-06-23T19:06:14.095Z,68.20
2023-06-23T19:08:47.122Z,69.55
2023-06-23T19:12:12.299Z,70.94
2023-06-23T19:14:44.537Z,68.61
2023-06-23T19:17:18.058Z,69.44
2023-06-23T19:19:50.358Z,68.95
2023-06-23T19:22:25.873Z,67.85
2023-06-23T19:26:10.587Z,69.01
2023-06-23T19:28:43.736Z,68.69
2023-06-23T19:31:16.531Z,68.99
2023-06-23T19:33:48.740Z,69.22
2023-06-23T19:36:21.181Z,69.29
2023-06-23T19:39:15.359Z,70.01
2023-06-23T19:42:11.773Z,71.60
2023-06-23T19:44:44.028Z,70.56
2023-06-23T19:48:11.782Z,71.77
2023-06-23T19:50:46.957Z,72.22
2023-06-23T19:53:23.477Z,73.04
2023-06-23T19:55:55.819Z,72.03
2023-06-23T19:58:31.173Z,74.33
2023-06-23T20:01:03.646Z,73.59
2023-06-23T20:03:36.474Z,72.68
2023-06-23T20:06:08.913Z,74.15
2023-06-23T20:08:41.601Z,72.72
2023-06-23T20:11:15.197Z,74.11
2023-06-23T20:13:47.555Z,73.76
2023-06-23T20:16:20.188Z,73.94
2023-06-23T20:18:52.636Z,73.68
2023-06-23T20:22:07.589Z,74.56
2023-06-23T20:24:40.104Z,73.80
2023-06-23T20:27:12.739Z,73.65
2023-06-23T20:29:45.236Z,74.20
2023-06-23T20:32:17.614Z,73.59
2023-06-23T20:35:09.608Z,73.76
2023-06-23T20:37:42.189Z,72.32
2023-06-23T20:40:15.721Z,73.22
2023-06-23T20:42:48.028Z,73.78
2023-06-23T20:45:22.814Z,73.88
2023-06-23T20:48:17.206Z,73.61
2023-06-23T20:50:53.223Z,73.71
2023-06-23T20:53:25.560Z,74.45
2023-06-23T20:55:58.005Z,74.75
2023-06-23T20:58:30.213Z,75.34
2023-06-23T21:01:18.074Z,74.56
2023-06-23T21:03:50.621Z,75.27
2023-06-23T21:06:23.969Z,75.77
2023-06-23T21:08:56.438Z,75.40
2023-06-23T21:11:31.707Z,76.35
2023-06-23T21:14:04.298Z,76.13
2023-06-23T21:16:39.770Z,76.17
2023-06-23T21:19:12.073Z,77.44
2023-06-23T21:21:45.245Z,76.20
2023-06-23T21:24:18.070Z,76.81
2023-06-23T21:27:16.655Z,77.69
2023-06-23T21:29:49.118Z,78.15
2023-06-23T21:32:24.909Z,78.29
2023-06-23T21:34:57.256Z,77.98
2023-06-23T21:37:33.355Z,78.48
2023-06-23T21:40:17.821Z,78.76
2023-06-23T21:42:50.315Z,78.49
2023-06-23T21:45:25.109Z,79.17
2023-06-23T21:48:22.325Z,79.24
2023-06-23T21:50:54.786Z,79.72
2023-06-23T21:53:30.360Z,79.58
2023-06-23T21:56:05.368Z,80.75
2023-06-23T21:58:40.948Z,80.28
2023-06-23T22:01:13.589Z,80.20
2023-06-23T22:03:54.560Z,80.74
2023-06-23T22:06:29.831Z,79.82
2023-06-23T22:09:35.902Z,81.19
2023-06-23T22:13:00.218Z,81.69
2023-06-23T22:15:48.681Z,80.09
2023-06-23T22:21:45.726Z,82.69
2023-06-23T22:24:54.169Z,82.25
2023-06-23T22:28:27.251Z,81.48
2023-06-23T22:34:26.985Z,82.55
2023-06-23T22:37:20.049Z,82.76
2023-06-23T22:39:57.945Z,82.53
2023-06-23T22:42:41.258Z,83.09
2023-06-23T22:45:13.742Z,83.27
2023-06-23T22:47:53.802Z,83.36
2023-06-23T22:50:30.577Z,83.03
2023-06-23T22:53:44.151Z,83.81
2023-06-23T22:57:09.690Z,85.15
2023-06-23T22:59:43.689Z,86.79
2023-06-23T23:02:20.095Z,86.03
2023-06-23T23:04:55.724Z,85.84
2023-06-23T23:07:42.928Z,84.83
2023-06-23T23:10:25.925Z,86.77
2023-06-23T23:12:58.606Z,86.40
2023-06-23T23:15:44.113Z,87.20
2023-06-23T23:21:35.695Z,86.74
2023-06-23T23:24:22.606Z,86.98
2023-06-23T23:30:55.247Z,88.17
2023-06-23T23:40:35.523Z,89.35
2023-06-23T23:43:18.876Z,89.95
2023-06-23T23:46:25.022Z,90.21
2023-06-23T23:49:06.096Z,91.37
2023-06-23T23:55:32.595Z,92.00
2023-06-23T23:58:14.993Z,92.64
